Josephine Anne — WDD9858 — position and weather

sailwx.info

Track history (hours):
 
Tides and Currents Weather Stations Pressure Air Temp Water Temp Dewpoint Dewpoint Depression Visibility Wind Speed Wind Dir Waves Ship Positions

Josephine Anne

Owner: E.N. Bisso & Son, Inc., Metairie, LA. More information available from US FCC via Universal Licensing System and Coast Guard Vessel Documentation Center.

Last reported at 2015-Mar-04 03:12 UTC. Time now 2015-Mar-04 04:28 UTC.
Position N 29°56' W 090°08'.

Length 29 m; draft 4.3 m.

Type: Tug. MMSI: 367317270.

Date/timePositionNaut miles runAvg speedWind from/ knotsBaromVisibWave heightAir tempDewpointWater temp
2015-Mar-04 03:12N 29°56' W 090°08'1 1.0
2015-Mar-04 02:23N 29°56' W 090°08'0 0.2
2015-Mar-04 01:16N 29°56' W 090°08'0 0.1
2015-Mar-03 23:19N 29°55' W 090°08'1 1.1
2015-Mar-03 22:31N 29°55' W 090°07'0 0.0
2015-Mar-03 20:29N 29°55' W 090°07'  
2015-Feb-28 23:23N 29°56' W 090°08'0 0.5
2015-Feb-28 22:33N 29°55' W 090°08'6 0.5
2015-Feb-28 11:18N 29°57' W 090°01'4 2.1
2015-Feb-28 09:31N 29°55' W 090°05'0 0.0
2015-Feb-28 08:33N 29°55' W 090°05'0 0.0
2015-Feb-28 07:33N 29°55' W 090°05'0 0.0
2015-Feb-28 06:28N 29°55' W 090°05'0 0.5
2015-Feb-28 05:33N 29°55' W 090°04'0 0.0
2015-Feb-28 04:33N 29°55' W 090°04'0 0.0
2015-Feb-28 03:32N 29°55' W 090°04'1 0.2
2015-Feb-27 20:14N 29°55' W 090°06'1 0.1
2015-Feb-27 16:24N 29°55' W 090°05'4 0.9
2015-Feb-27 12:11N 29°57' W 090°02'2 2.6
2015-Feb-27 11:25N 29°57' W 089°60'0 0.5
2015-Feb-27 10:20N 29°56' W 089°60'3 1.1
2015-Feb-27 07:33N 29°55' W 089°56'3 2.5
2015-Feb-27 06:18N 29°56' W 089°60'6 8.6
2015-Feb-27 05:33N 29°54' W 090°07'1 0.4
2015-Feb-27 01:31N 29°55' W 090°08'4 1.8
2015-Feb-26 23:29N 29°55' W 090°04'3 1.4
2015-Feb-26 21:13N 29°55' W 090°07'1 0.2
2015-Feb-26 15:32N 29°55' W 090°08'6 0.3
2015-Feb-25 22:22N 29°57' W 090°02'1 1.4
2015-Feb-25 21:28N 29°57' W 090°03'4 0.1
2015-Feb-24 09:18N 29°56' W 090°08'0 0.0
2015-Feb-24 04:29N 29°56' W 090°08'0 0.0
2015-Feb-24 03:26N 29°56' W 090°08'0 0.0
2015-Feb-24 02:27N 29°56' W 090°08'0 0.0
2015-Feb-24 01:32N 29°56' W 090°08'1 0.7
2015-Feb-24 00:17N 29°56' W 090°08'1 0.5
2015-Feb-23 22:32N 29°56' W 090°08'0 0.0
2015-Feb-23 12:23N 29°55' W 090°08'7 1.8
2015-Feb-23 08:18N 29°56' W 089°60'2 2.7
2015-Feb-23 07:27N 29°58' W 090°02'0 0.0
2015-Feb-23 06:29N 29°58' W 090°02'0 0.0
2015-Feb-23 05:33N 29°58' W 090°02'1 0.7
2015-Feb-23 04:30N 29°58' W 090°03'2 0.1
2015-Feb-22 08:33N 29°57' W 090°01'0 0.0
2015-Feb-22 07:33N 29°57' W 090°01'0 0.0
2015-Feb-22 06:29N 29°57' W 090°01'0 0.0
2015-Feb-22 05:27N 29°57' W 090°01'0 0.0
2015-Feb-22 04:31N 29°57' W 090°01'0 0.0
2015-Feb-22 03:33N 29°57' W 090°01'  
Track history (hours):
 
Tides and Currents Weather Stations Pressure Air Temp Water Temp Dewpoint Dewpoint Depression Visibility Wind Speed Wind Dir Waves Ship Positions

Josephine Anne

Owner: E.N. Bisso & Son, Inc., Metairie, LA. More information available from US FCC via Universal Licensing System and Coast Guard Vessel Documentation Center.

Last reported at 2015-Mar-04 03:12 UTC. Time now 2015-Mar-04 04:28 UTC.
Position N 29°56' W 090°08'.

Length 29 m; draft 4.3 m.

Type: Tug. MMSI: 367317270.

Date/timePositionNaut miles runAvg speedWind from/ knotsBaromVisibWave heightAir tempDewpointWater temp
2015-Mar-04 03:12N 29°56' W 090°08'1 1.0
2015-Mar-04 02:23N 29°56' W 090°08'0 0.2
2015-Mar-04 01:16N 29°56' W 090°08'0 0.1
2015-Mar-03 23:19N 29°55' W 090°08'1 1.1
2015-Mar-03 22:31N 29°55' W 090°07'0 0.0
2015-Mar-03 20:29N 29°55' W 090°07'  
2015-Feb-28 23:23N 29°56' W 090°08'0 0.5
2015-Feb-28 22:33N 29°55' W 090°08'6 0.5
2015-Feb-28 11:18N 29°57' W 090°01'4 2.1
2015-Feb-28 09:31N 29°55' W 090°05'0 0.0
2015-Feb-28 08:33N 29°55' W 090°05'0 0.0
2015-Feb-28 07:33N 29°55' W 090°05'0 0.0
2015-Feb-28 06:28N 29°55' W 090°05'0 0.5
2015-Feb-28 05:33N 29°55' W 090°04'0 0.0
2015-Feb-28 04:33N 29°55' W 090°04'0 0.0
2015-Feb-28 03:32N 29°55' W 090°04'1 0.2
2015-Feb-27 20:14N 29°55' W 090°06'1 0.1
2015-Feb-27 16:24N 29°55' W 090°05'4 0.9
2015-Feb-27 12:11N 29°57' W 090°02'2 2.6
2015-Feb-27 11:25N 29°57' W 089°60'0 0.5
2015-Feb-27 10:20N 29°56' W 089°60'3 1.1
2015-Feb-27 07:33N 29°55' W 089°56'3 2.5
2015-Feb-27 06:18N 29°56' W 089°60'6 8.6
2015-Feb-27 05:33N 29°54' W 090°07'1 0.4
2015-Feb-27 01:31N 29°55' W 090°08'4 1.8
2015-Feb-26 23:29N 29°55' W 090°04'3 1.4
2015-Feb-26 21:13N 29°55' W 090°07'1 0.2
2015-Feb-26 15:32N 29°55' W 090°08'6 0.3
2015-Feb-25 22:22N 29°57' W 090°02'1 1.4
2015-Feb-25 21:28N 29°57' W 090°03'4 0.1
2015-Feb-24 09:18N 29°56' W 090°08'0 0.0
2015-Feb-24 04:29N 29°56' W 090°08'0 0.0
2015-Feb-24 03:26N 29°56' W 090°08'0 0.0
2015-Feb-24 02:27N 29°56' W 090°08'0 0.0
2015-Feb-24 01:32N 29°56' W 090°08'1 0.7
2015-Feb-24 00:17N 29°56' W 090°08'1 0.5
2015-Feb-23 22:32N 29°56' W 090°08'0 0.0
2015-Feb-23 12:23N 29°55' W 090°08'7 1.8
2015-Feb-23 08:18N 29°56' W 089°60'2 2.7
2015-Feb-23 07:27N 29°58' W 090°02'0 0.0
2015-Feb-23 06:29N 29°58' W 090°02'0 0.0
2015-Feb-23 05:33N 29°58' W 090°02'1 0.7
2015-Feb-23 04:30N 29°58' W 090°03'2 0.1
2015-Feb-22 08:33N 29°57' W 090°01'0 0.0
2015-Feb-22 07:33N 29°57' W 090°01'0 0.0
2015-Feb-22 06:29N 29°57' W 090°01'0 0.0
2015-Feb-22 05:27N 29°57' W 090°01'0 0.0
2015-Feb-22 04:31N 29°57' W 090°01'0 0.0
2015-Feb-22 03:33N 29°57' W 090°01'  

Dump ship's entire track history